sensor_id;sensor_type;location;lat;lon;timestamp;pressure;altitude;pressure_sealevel;temperature;humidity
30875;BME280;17581;43.222;27.924;2023-03-26T00:01:55;99836.69;;;10.93;100.00
30875;BME280;17581;43.222;27.924;2023-03-26T00:04:22;99849.66;;;11.08;100.00
30875;BME280;17581;43.222;27.924;2023-03-26T00:06:50;99833.94;;;11.13;100.00
30875;BME280;17581;43.222;27.924;2023-03-26T00:09:16;99836.72;;;11.21;100.00
30875;BME280;17581;43.222;27.924;2023-03-26T00:11:42;99845.63;;;11.31;100.00
30875;BME280;17581;43.222;27.924;2023-03-26T00:14:09;99837.63;;;11.39;100.00
30875;BME280;17581;43.222;27.924;2023-03-26T00:16:39;99850.50;;;11.45;100.00
30875;BME280;17581;43.222;27.924;2023-03-26T00:19:07;99860.84;;;11.50;100.00
30875;BME280;17581;43.222;27.924;2023-03-26T00:21:33;99857.38;;;11.57;100.00
30875;BME280;17581;43.222;27.924;2023-03-26T00:24:05;99855.06;;;11.62;100.00
30875;BME280;17581;43.222;27.924;2023-03-26T00:26:32;99849.38;;;11.65;100.00
30875;BME280;17581;43.222;27.924;2023-03-26T00:28:58;99848.41;;;11.66;100.00
30875;BME280;17581;43.222;27.924;2023-03-26T00:31:24;99855.91;;;11.72;100.00
30875;BME280;17581;43.222;27.924;2023-03-26T00:33:51;99867.78;;;11.79;100.00
30875;BME280;17581;43.222;27.924;2023-03-26T00:36:20;99840.31;;;11.66;99.89
30875;BME280;17581;43.222;27.924;2023-03-26T00:38:47;99873.44;;;11.86;99.23
30875;BME280;17581;43.222;27.924;2023-03-26T00:41:15;99859.84;;;11.78;98.73
30875;BME280;17581;43.222;27.924;2023-03-26T00:44:03;99867.66;;;11.71;97.57
30875;BME280;17581;43.222;27.924;2023-03-26T00:46:30;99874.09;;;11.70;97.38
30875;BME280;17581;43.222;27.924;2023-03-26T00:48:56;99879.16;;;11.73;97.09
30875;BME280;17581;43.222;27.924;2023-03-26T00:51:23;99872.75;;;11.74;96.85
30875;BME280;17581;43.222;27.924;2023-03-26T00:53:49;99881.13;;;11.71;96.73
30875;BME280;17581;43.222;27.924;2023-03-26T00:56:14;99877.34;;;11.64;96.78
30875;BME280;17581;43.222;27.924;2023-03-26T00:58:40;99889.78;;;11.65;97.16
30875;BME280;17581;43.222;27.924;2023-03-26T01:01:09;99892.00;;;11.52;96.43
30875;BME280;17581;43.222;27.924;2023-03-26T01:03:36;99895.69;;;11.51;95.95
30875;BME280;17581;43.222;27.924;2023-03-26T01:06:07;99888.59;;;11.50;96.36
30875;BME280;17581;43.222;27.924;2023-03-26T01:08:43;99897.38;;;11.52;96.27
30875;BME280;17581;43.222;27.924;2023-03-26T01:11:26;99903.66;;;11.43;95.83
30875;BME280;17581;43.222;27.924;2023-03-26T01:14:01;99894.28;;;11.47;96.13
30875;BME280;17581;43.222;27.924;2023-03-26T01:16:43;99869.66;;;11.42;96.17
30875;BME280;17581;43.222;27.924;2023-03-26T01:22:04;99882.69;;;11.46;95.76
30875;BME280;17581;43.222;27.924;2023-03-26T01:24:30;99881.53;;;11.49;95.67
30875;BME280;17581;43.222;27.924;2023-03-26T01:27:27;99885.50;;;11.45;95.91
30875;BME280;17581;43.222;27.924;2023-03-26T01:35:44;99895.47;;;11.25;95.63
30875;BME280;17581;43.222;27.924;2023-03-26T01:40:59;99892.28;;;11.12;95.94
30875;BME280;17581;43.222;27.924;2023-03-26T01:46:03;99887.97;;;11.29;96.72
30875;BME280;17581;43.222;27.924;2023-03-26T01:48:38;99891.91;;;11.34;96.89
30875;BME280;17581;43.222;27.924;2023-03-26T01:51:05;99880.63;;;11.31;96.98
30875;BME280;17581;43.222;27.924;2023-03-26T01:53:32;99889.34;;;11.42;97.13
30875;BME280;17581;43.222;27.924;2023-03-26T02:01:52;99884.06;;;11.51;98.01
30875;BME280;17581;43.222;27.924;2023-03-26T02:07:18;99888.53;;;11.60;97.90
30875;BME280;17581;43.222;27.924;2023-03-26T02:09:51;99873.09;;;11.62;97.22
30875;BME280;17581;43.222;27.924;2023-03-26T02:12:20;99882.84;;;11.72;96.20
30875;BME280;17581;43.222;27.924;2023-03-26T02:14:47;99881.41;;;11.68;96.18
30875;BME280;17581;43.222;27.924;2023-03-26T02:17:13;99872.66;;;11.66;95.82
30875;BME280;17581;43.222;27.924;2023-03-26T02:19:38;99883.00;;;11.71;95.22
30875;BME280;17581;43.222;27.924;2023-03-26T02:22:11;99874.78;;;11.72;95.37
30875;BME280;17581;43.222;27.924;2023-03-26T02:24:40;99881.84;;;11.73;95.04
30875;BME280;17581;43.222;27.924;2023-03-26T02:27:05;99888.09;;;11.74;95.50
30875;BME280;17581;43.222;27.924;2023-03-26T02:29:36;99882.16;;;11.70;94.83
30875;BME280;17581;43.222;27.924;2023-03-26T02:32:06;99882.56;;;11.75;95.23
30875;BME280;17581;43.222;27.924;2023-03-26T02:34:32;99882.25;;;11.78;95.46
30875;BME280;17581;43.222;27.924;2023-03-26T02:36:58;99885.09;;;11.77;94.92
30875;BME280;17581;43.222;27.924;2023-03-26T02:39:24;99883.66;;;11.82;94.92
30875;BME280;17581;43.222;27.924;2023-03-26T02:41:50;99888.44;;;11.88;95.24
30875;BME280;17581;43.222;27.924;2023-03-26T02:44:15;99871.78;;;11.93;94.94
30875;BME280;17581;43.222;27.924;2023-03-26T02:46:41;99883.38;;;12.03;95.59
30875;BME280;17581;43.222;27.924;2023-03-26T02:49:06;99871.91;;;12.01;95.54
30875;BME280;17581;43.222;27.924;2023-03-26T02:51:32;99884.91;;;12.06;95.66
30875;BME280;17581;43.222;27.924;2023-03-26T02:54:02;99887.16;;;12.10;96.10
30875;BME280;17581;43.222;27.924;2023-03-26T02:56:28;99891.69;;;12.10;95.99
30875;BME280;17581;43.222;27.924;2023-03-26T02:58:53;99895.69;;;12.06;95.33
30875;BME280;17581;43.222;27.924;2023-03-26T03:01:19;99898.06;;;12.09;95.38
30875;BME280;17581;43.222;27.924;2023-03-26T03:03:45;99905.56;;;12.15;95.17
30875;BME280;17581;43.222;27.924;2023-03-26T03:06:14;99897.88;;;12.20;95.17
30875;BME280;17581;43.222;27.924;2023-03-26T03:08:43;99896.72;;;12.22;94.78
30875;BME280;17581;43.222;27.924;2023-03-26T03:11:18;99897.56;;;12.23;95.79
30875;BME280;17581;43.222;27.924;2023-03-26T03:13:48;99905.25;;;12.18;95.95
30875;BME280;17581;43.222;27.924;2023-03-26T03:16:15;99908.34;;;12.23;95.25
30875;BME280;17581;43.222;27.924;2023-03-26T03:18:41;99901.25;;;12.22;95.13
30875;BME280;17581;43.222;27.924;2023-03-26T03:21:06;99897.88;;;12.20;95.46
30875;BME280;17581;43.222;27.924;2023-03-26T03:23:32;99901.56;;;12.19;95.55
30875;BME280;17581;43.222;27.924;2023-03-26T03:25:57;99905.25;;;12.18;94.96
30875;BME280;17581;43.222;27.924;2023-03-26T03:28:24;99915.91;;;12.19;94.40
30875;BME280;17581;43.222;27.924;2023-03-26T03:30:50;99915.03;;;12.19;94.63
30875;BME280;17581;43.222;27.924;2023-03-26T03:33:21;99912.19;;;12.20;95.26
30875;BME280;17581;43.222;27.924;2023-03-26T03:35:47;99912.34;;;12.19;95.04
30875;BME280;17581;43.222;27.924;2023-03-26T03:38:14;99917.13;;;12.25;94.88
30875;BME280;17581;43.222;27.924;2023-03-26T03:40:41;99907.03;;;12.27;94.90
30875;BME280;17581;43.222;27.924;2023-03-26T03:43:07;99907.03;;;12.27;95.33
30875;BME280;17581;43.222;27.924;2023-03-26T03:45:32;99922.91;;;12.30;95.72
30875;BME280;17581;43.222;27.924;2023-03-26T03:47:58;99934.72;;;12.29;95.44
30875;BME280;17581;43.222;27.924;2023-03-26T03:50:24;99932.09;;;12.37;94.54
30875;BME280;17581;43.222;27.924;2023-03-26T03:52:50;99928.09;;;12.41;93.52
30875;BME280;17581;43.222;27.924;2023-03-26T03:55:16;99930.31;;;12.45;92.77
30875;BME280;17581;43.222;27.924;2023-03-26T03:57:41;99928.16;;;12.49;92.64
30875;BME280;17581;43.222;27.924;2023-03-26T04:00:07;99937.09;;;12.49;91.22
30875;BME280;17581;43.222;27.924;2023-03-26T04:02:36;99925.53;;;12.57;90.89
30875;BME280;17581;43.222;27.924;2023-03-26T04:05:03;99919.69;;;12.62;90.33
30875;BME280;17581;43.222;27.924;2023-03-26T04:07:31;99926.78;;;12.63;90.18
30875;BME280;17581;43.222;27.924;2023-03-26T04:09:59;99914.59;;;12.59;89.01
30875;BME280;17581;43.222;27.924;2023-03-26T04:12:27;99924.22;;;12.61;88.58
30875;BME280;17581;43.222;27.924;2023-03-26T04:14:53;99916.81;;;12.63;87.68
30875;BME280;17581;43.222;27.924;2023-03-26T04:17:19;99930.69;;;12.68;88.02
30875;BME280;17581;43.222;27.924;2023-03-26T04:19:46;99930.38;;;12.71;88.10
30875;BME280;17581;43.222;27.924;2023-03-26T04:22:12;99942.53;;;12.75;88.81
30875;BME280;17581;43.222;27.924;2023-03-26T04:24:38;99934.44;;;12.75;89.38
30875;BME280;17581;43.222;27.924;2023-03-26T04:27:09;99931.75;;;12.75;89.46
30875;BME280;17581;43.222;27.924;2023-03-26T04:29:39;99932.84;;;12.65;88.94
30875;BME280;17581;43.222;27.924;2023-03-26T04:32:14;99935.63;;;12.73;88.85
30875;BME280;17581;43.222;27.924;2023-03-26T04:34:44;99926.66;;;12.72;89.52
30875;BME280;17581;43.222;27.924;2023-03-26T04:37:16;99944.88;;;12.70;88.95
30875;BME280;17581;43.222;27.924;2023-03-26T04:39:46;99940.88;;;12.74;89.60
30875;BME280;17581;43.222;27.924;2023-03-26T04:42:11;99943.34;;;12.68;89.65
30875;BME280;17581;43.222;27.924;2023-03-26T04:44:38;99953.34;;;12.75;89.84
30875;BME280;17581;43.222;27.924;2023-03-26T04:47:06;99961.84;;;12.80;90.20
30875;BME280;17581;43.222;27.924;2023-03-26T04:49:32;99964.38;;;12.82;90.43
30875;BME280;17581;43.222;27.924;2023-03-26T04:51:57;99972.88;;;12.87;90.40
30875;BME280;17581;43.222;27.924;2023-03-26T04:54:23;99966.63;;;12.86;90.73
30875;BME280;17581;43.222;27.924;2023-03-26T04:56:56;99963.19;;;12.84;90.31
30875;BME280;17581;43.222;27.924;2023-03-26T04:59:29;99975.38;;;12.88;89.98
30875;BME280;17581;43.222;27.924;2023-03-26T05:02:00;99957.13;;;12.82;90.00
30875;BME280;17581;43.222;27.924;2023-03-26T05:04:26;99973.38;;;12.90;90.42
30875;BME280;17581;43.222;27.924;2023-03-26T05:06:57;99975.38;;;12.88;90.51
30875;BME280;17581;43.222;27.924;2023-03-26T05:09:23;99971.28;;;12.84;90.06
30875;BME280;17581;43.222;27.924;2023-03-26T05:11:49;99984.56;;;12.95;90.51
30875;BME280;17581;43.222;27.924;2023-03-26T05:14:16;99975.03;;;12.83;90.53
30875;BME280;17581;43.222;27.924;2023-03-26T05:16:42;99971.59;;;12.81;89.89
30875;BME280;17581;43.222;27.924;2023-03-26T05:19:09;99965.75;;;12.86;90.04
30875;BME280;17581;43.222;27.924;2023-03-26T05:21:35;99959.81;;;12.82;90.54
30875;BME280;17581;43.222;27.924;2023-03-26T05:24:00;99961.22;;;12.86;91.19
30875;BME280;17581;43.222;27.924;2023-03-26T05:26:26;99975.69;;;12.85;90.92
30875;BME280;17581;43.222;27.924;2023-03-26T05:28:55;99978.72;;;12.82;91.28
30875;BME280;17581;43.222;27.924;2023-03-26T05:31:21;99994.53;;;12.77;89.52
30875;BME280;17581;43.222;27.924;2023-03-26T05:33:46;99978.41;;;12.68;89.92
30875;BME280;17581;43.222;27.924;2023-03-26T05:36:13;99974.94;;;12.75;90.42
30875;BME280;17581;43.222;27.924;2023-03-26T05:38:39;99967.13;;;12.72;90.21
30875;BME280;17581;43.222;27.924;2023-03-26T05:41:07;99982.81;;;12.86;91.15
30875;BME280;17581;43.222;27.924;2023-03-26T05:43:33;99960.59;;;12.92;92.00
30875;BME280;17581;43.222;27.924;2023-03-26T05:45:59;99958.56;;;12.94;91.56
30875;BME280;17581;43.222;27.924;2023-03-26T05:48:25;99970.13;;;13.04;91.32
30875;BME280;17581;43.222;27.924;2023-03-26T05:50:52;99974.47;;;12.97;89.84
30875;BME280;17581;43.222;27.924;2023-03-26T05:53:19;99974.38;;;13.07;90.13
30875;BME280;17581;43.222;27.924;2023-03-26T05:55:46;99974.69;;;13.22;90.04
30875;BME280;17581;43.222;27.924;2023-03-26T05:58:15;99971.34;;;13.28;90.69
30875;BME280;17581;43.222;27.924;2023-03-26T06:00:41;99992.22;;;13.43;90.90
30875;BME280;17581;43.222;27.924;2023-03-26T06:03:07;99995.16;;;13.50;90.41
30875;BME280;17581;43.222;27.924;2023-03-26T06:05:37;100002.94;;;13.53;89.46
30875;BME280;17581;43.222;27.924;2023-03-26T06:08:04;100007.47;;;13.52;88.46
30875;BME280;17581;43.222;27.924;2023-03-26T06:10:30;99999.59;;;13.59;88.82
30875;BME280;17581;43.222;27.924;2023-03-26T06:12:56;99996.88;;;13.59;88.32
30875;BME280;17581;43.222;27.924;2023-03-26T06:15:22;100009.09;;;13.63;87.69
30875;BME280;17581;43.222;27.924;2023-03-26T06:17:48;100003.69;;;13.63;87.07
30875;BME280;17581;43.222;27.924;2023-03-26T06:20:13;100006.41;;;13.71;87.08
30875;BME280;17581;43.222;27.924;2023-03-26T06:22:39;100012.47;;;13.65;85.75
30875;BME280;17581;43.222;27.924;2023-03-26T06:25:05;100012.50;;;13.73;85.60
30875;BME280;17581;43.222;27.924;2023-03-26T06:27:31;100003.06;;;13.77;85.99
30875;BME280;17581;43.222;27.924;2023-03-26T06:29:56;99999.06;;;13.81;86.13
30875;BME280;17581;43.222;27.924;2023-03-26T06:32:22;100004.28;;;13.83;85.77
30875;BME280;17581;43.222;27.924;2023-03-26T06:34:47;100008.34;;;13.79;83.78
30875;BME280;17581;43.222;27.924;2023-03-26T06:37:14;100006.59;;;13.70;82.69
30875;BME280;17581;43.222;27.924;2023-03-26T06:39:40;99995.78;;;13.70;83.29
30875;BME280;17581;43.222;27.924;2023-03-26T06:42:06;99999.31;;;13.70;83.39
30875;BME280;17581;43.222;27.924;2023-03-26T06:44:31;100016.16;;;13.64;83.25
30875;BME280;17581;43.222;27.924;2023-03-26T06:46:57;100012.00;;;13.70;83.65
30875;BME280;17581;43.222;27.924;2023-03-26T06:49:22;100011.28;;;13.68;82.10
30875;BME280;17581;43.222;27.924;2023-03-26T06:51:48;100018.63;;;13.75;81.93
30875;BME280;17581;43.222;27.924;2023-03-26T06:54:13;100015.91;;;13.75;81.76
30875;BME280;17581;43.222;27.924;2023-03-26T06:56:38;100020.94;;;13.70;81.57
30875;BME280;17581;43.222;27.924;2023-03-26T06:59:04;100027.19;;;13.71;80.58
30875;BME280;17581;43.222;27.924;2023-03-26T07:01:30;100024.34;;;13.72;80.35
30875;BME280;17581;43.222;27.924;2023-03-26T07:03:55;100016.69;;;13.68;80.00
30875;BME280;17581;43.222;27.924;2023-03-26T07:06:21;100029.31;;;13.59;77.98
30875;BME280;17581;43.222;27.924;2023-03-26T07:08:46;100020.22;;;13.60;78.44
30875;BME280;17581;43.222;27.924;2023-03-26T07:11:13;100024.25;;;13.64;79.93
30875;BME280;17581;43.222;27.924;2023-03-26T07:13:41;100025.28;;;13.63;79.13
30875;BME280;17581;43.222;27.924;2023-03-26T07:16:06;100030.06;;;13.69;78.27
30875;BME280;17581;43.222;27.924;2023-03-26T07:18:32;100025.19;;;13.73;78.39
30875;BME280;17581;43.222;27.924;2023-03-26T07:20:57;100027.72;;;13.74;77.84
30875;BME280;17581;43.222;27.924;2023-03-26T07:23:23;100019.94;;;13.71;77.52
30875;BME280;17581;43.222;27.924;2023-03-26T07:25:49;100017.97;;;13.81;79.05
30875;BME280;17581;43.222;27.924;2023-03-26T07:31:09;100022.84;;;14.03;77.54
30875;BME280;17581;43.222;27.924;2023-03-26T07:33:57;100035.59;;;14.27;76.85
30875;BME280;17581;43.222;27.924;2023-03-26T07:36:56;100032.63;;;14.38;75.41
30875;BME280;17581;43.222;27.924;2023-03-26T07:39:41;100024.56;;;14.54;76.30
30875;BME280;17581;43.222;27.924;2023-03-26T07:47:34;100032.88;;;14.61;74.99
30875;BME280;17581;43.222;27.924;2023-03-26T07:50:01;100009.88;;;14.65;73.56
30875;BME280;17581;43.222;27.924;2023-03-26T07:52:27;100006.00;;;14.76;73.98
30875;BME280;17581;43.222;27.924;2023-03-26T07:54:53;99999.06;;;14.73;72.77
30875;BME280;17581;43.222;27.924;2023-03-26T07:58:00;99999.41;;;14.86;72.88
30875;BME280;17581;43.222;27.924;2023-03-26T08:05:37;99988.41;;;14.71;71.41
30875;BME280;17581;43.222;27.924;2023-03-26T08:08:11;99984.34;;;14.76;70.45
30875;BME280;17581;43.222;27.924;2023-03-26T08:21:37;99986.53;;;14.72;70.79
30875;BME280;17581;43.222;27.924;2023-03-26T08:24:26;99984.69;;;14.81;71.46
30875;BME280;17581;43.222;27.924;2023-03-26T08:29:59;99988.78;;;15.25;68.97
30875;BME280;17581;43.222;27.924;2023-03-26T08:32:28;99990.44;;;15.42;68.49
30875;BME280;17581;43.222;27.924;2023-03-26T08:34:54;99981.81;;;15.63;68.91
30875;BME280;17581;43.222;27.924;2023-03-26T08:37:21;99993.63;;;15.86;67.74
30875;BME280;17581;43.222;27.924;2023-03-26T08:39:47;99973.59;;;15.95;66.48
30875;BME280;17581;43.222;27.924;2023-03-26T08:56:28;99984.81;;;16.62;60.91
30875;BME280;17581;43.222;27.924;2023-03-26T09:04:19;99988.09;;;17.03;60.06
30875;BME280;17581;43.222;27.924;2023-03-26T09:21:08;100006.19;;;17.10;56.92
30875;BME280;17581;43.222;27.924;2023-03-26T09:29:44;100021.53;;;16.80;55.81
30875;BME280;17581;43.222;27.924;2023-03-26T09:35:45;100023.28;;;16.96;56.20
30875;BME280;17581;43.222;27.924;2023-03-26T09:58:04;100050.94;;;17.22;55.69
30875;BME280;17581;43.222;27.924;2023-03-26T10:05:43;100028.63;;;17.50;54.74
30875;BME280;17581;43.222;27.924;2023-03-26T10:11:17;100021.50;;;17.86;54.68
30875;BME280;17581;43.222;27.924;2023-03-26T10:14:02;100024.41;;;17.99;53.63
30875;BME280;17581;43.222;27.924;2023-03-26T10:22:19;100046.97;;;18.22;51.40
30875;BME280;17581;43.222;27.924;2023-03-26T10:33:49;100050.88;;;17.76;53.86
30875;BME280;17581;43.222;27.924;2023-03-26T10:36:33;100042.88;;;17.74;53.22
30875;BME280;17581;43.222;27.924;2023-03-26T10:41:40;100039.75;;;17.63;52.99
30875;BME280;17581;43.222;27.924;2023-03-26T10:49:34;100048.34;;;17.52;51.93
30875;BME280;17581;43.222;27.924;2023-03-26T10:52:12;100043.28;;;17.49;52.69
30875;BME280;17581;43.222;27.924;2023-03-26T10:58:04;100047.09;;;17.39;51.22
30875;BME280;17581;43.222;27.924;2023-03-26T11:00:38;100035.25;;;17.32;51.36
30875;BME280;17581;43.222;27.924;2023-03-26T11:05:46;100044.72;;;17.36;51.38
30875;BME280;17581;43.222;27.924;2023-03-26T11:16:03;100020.84;;;17.84;50.45
30875;BME280;17581;43.222;27.924;2023-03-26T11:21:20;100050.59;;;18.00;49.47
30875;BME280;17581;43.222;27.924;2023-03-26T11:26:28;100059.41;;;18.17;49.48
30875;BME280;17581;43.222;27.924;2023-03-26T11:29:11;100050.13;;;18.11;48.99
30875;BME280;17581;43.222;27.924;2023-03-26T11:32:04;100035.69;;;18.25;49.09
30875;BME280;17581;43.222;27.924;2023-03-26T11:34:59;100020.38;;;18.39;48.54
30875;BME280;17581;43.222;27.924;2023-03-26T11:37:31;100042.44;;;18.59;48.30
30875;BME280;17581;43.222;27.924;2023-03-26T11:40:00;100027.31;;;18.56;47.64
30875;BME280;17581;43.222;27.924;2023-03-26T11:42:30;100021.66;;;18.72;47.96
30875;BME280;17581;43.222;27.924;2023-03-26T11:44:59;100038.63;;;18.89;45.51
30875;BME280;17581;43.222;27.924;2023-03-26T11:47:37;100029.00;;;18.93;45.47
30875;BME280;17581;43.222;27.924;2023-03-26T11:50:13;100035.38;;;19.00;44.68
30875;BME280;17581;43.222;27.924;2023-03-26T11:52:40;100031.31;;;19.11;44.68
30875;BME280;17581;43.222;27.924;2023-03-26T11:55:10;100020.19;;;19.33;44.40
30875;BME280;17581;43.222;27.924;2023-03-26T11:57:39;100026.72;;;19.53;43.56
30875;BME280;17581;43.222;27.924;2023-03-26T12:00:13;100019.22;;;19.62;44.08
30875;BME280;17581;43.222;27.924;2023-03-26T12:02:44;100018.88;;;19.72;44.40
30875;BME280;17581;43.222;27.924;2023-03-26T12:05:14;100014.06;;;19.74;43.67
30875;BME280;17581;43.222;27.924;2023-03-26T12:12:51;100026.50;;;19.83;42.65
30875;BME280;17581;43.222;27.924;2023-03-26T12:15:19;100019.34;;;19.82;42.58
30875;BME280;17581;43.222;27.924;2023-03-26T12:17:47;99992.38;;;20.00;42.08
30875;BME280;17581;43.222;27.924;2023-03-26T12:22:50;100017.94;;;20.54;40.98
30875;BME280;17581;43.222;27.924;2023-03-26T12:25:21;100025.13;;;20.69;39.98
30875;BME280;17581;43.222;27.924;2023-03-26T12:27:57;100014.25;;;20.82;39.62
30875;BME280;17581;43.222;27.924;2023-03-26T12:30:34;100018.88;;;20.88;39.16
30875;BME280;17581;43.222;27.924;2023-03-26T12:33:05;100018.16;;;20.59;38.82
30875;BME280;17581;43.222;27.924;2023-03-26T12:35:33;100019.38;;;20.50;39.45
30875;BME280;17581;43.222;27.924;2023-03-26T12:41:10;100015.16;;;20.48;39.76
30875;BME280;17581;43.222;27.924;2023-03-26T12:43:44;100024.22;;;20.48;40.11
30875;BME280;17581;43.222;27.924;2023-03-26T12:48:53;99996.22;;;20.46;39.22
30875;BME280;17581;43.222;27.924;2023-03-26T12:56:58;99992.16;;;20.90;39.07
30875;BME280;17581;43.222;27.924;2023-03-26T13:02:17;99988.88;;;21.14;38.16
30875;BME280;17581;43.222;27.924;2023-03-26T13:05:08;99982.31;;;21.02;37.80
30875;BME280;17581;43.222;27.924;2023-03-26T13:10:44;99970.34;;;21.16;36.89
30875;BME280;17581;43.222;27.924;2023-03-26T13:19:31;99974.28;;;20.87;37.57
30875;BME280;17581;43.222;27.924;2023-03-26T13:22:36;99965.69;;;20.97;37.83
30875;BME280;17581;43.222;27.924;2023-03-26T13:30:58;99964.28;;;21.27;37.84
30875;BME280;17581;43.222;27.924;2023-03-26T13:43:47;99972.50;;;21.27;37.56
30875;BME280;17581;43.222;27.924;2023-03-26T13:49:02;99976.25;;;21.13;38.02
30875;BME280;17581;43.222;27.924;2023-03-26T13:51:38;99975.63;;;21.11;37.93
30875;BME280;17581;43.222;27.924;2023-03-26T13:54:17;99966.53;;;21.04;37.65
30875;BME280;17581;43.222;27.924;2023-03-26T13:56:53;99965.66;;;20.84;37.95
30875;BME280;17581;43.222;27.924;2023-03-26T13:59:20;99961.44;;;20.75;38.34
30875;BME280;17581;43.222;27.924;2023-03-26T14:01:57;99971.34;;;20.76;38.38
30875;BME280;17581;43.222;27.924;2023-03-26T14:04:31;99965.22;;;20.74;38.82
30875;BME280;17581;43.222;27.924;2023-03-26T14:15:01;99963.88;;;20.50;40.61
30875;BME280;17581;43.222;27.924;2023-03-26T14:17:42;99967.09;;;20.19;43.31
30875;BME280;17581;43.222;27.924;2023-03-26T14:25:45;99975.78;;;19.39;47.33
30875;BME280;17581;43.222;27.924;2023-03-26T14:31:35;99977.03;;;18.94;48.31
30875;BME280;17581;43.222;27.924;2023-03-26T14:47:45;99969.63;;;18.67;49.44
30875;BME280;17581;43.222;27.924;2023-03-26T14:53:27;99970.56;;;18.74;49.94
30875;BME280;17581;43.222;27.924;2023-03-26T15:49:40;100045.13;;;15.78;60.06
30875;BME280;17581;43.222;27.924;2023-03-26T15:52:28;100046.88;;;15.47;60.94
30875;BME280;17581;43.222;27.924;2023-03-26T15:55:25;100051.59;;;15.45;61.88
30875;BME280;17581;43.222;27.924;2023-03-26T15:58:17;100053.31;;;15.38;62.48
30875;BME280;17581;43.222;27.924;2023-03-26T16:01:34;100055.00;;;15.22;62.79
30875;BME280;17581;43.222;27.924;2023-03-26T16:04:06;100061.91;;;15.17;63.38
30875;BME280;17581;43.222;27.924;2023-03-26T16:06:40;100065.47;;;15.09;63.27
30875;BME280;17581;43.222;27.924;2023-03-26T16:11:56;100068.00;;;14.95;64.12
30875;BME280;17581;43.222;27.924;2023-03-26T16:14:40;100066.94;;;14.88;64.21
30875;BME280;17581;43.222;27.924;2023-03-26T16:17:12;100070.50;;;14.96;64.41
30875;BME280;17581;43.222;27.924;2023-03-26T16:23:17;100077.44;;;14.83;65.01
30875;BME280;17581;43.222;27.924;2023-03-26T16:25:57;100091.47;;;14.86;65.18
30875;BME280;17581;43.222;27.924;2023-03-26T16:28:31;100094.34;;;14.85;64.84
30875;BME280;17581;43.222;27.924;2023-03-26T17:08:14;100168.25;;;13.74;73.35
30875;BME280;17581;43.222;27.924;2023-03-26T17:16:14;100168.72;;;13.52;74.45
30875;BME280;17581;43.222;27.924;2023-03-26T17:19:23;100182.78;;;13.55;74.63
30875;BME280;17581;43.222;27.924;2023-03-26T17:22:04;100178.59;;;13.61;74.87
30875;BME280;17581;43.222;27.924;2023-03-26T17:41:11;100186.34;;;13.56;75.02
30875;BME280;17581;43.222;27.924;2023-03-26T17:43:49;100194.44;;;13.56;74.66
30875;BME280;17581;43.222;27.924;2023-03-26T17:46:40;100198.69;;;13.41;75.01
30875;BME280;17581;43.222;27.924;2023-03-26T17:49:17;100200.63;;;13.48;75.28
30875;BME280;17581;43.222;27.924;2023-03-26T17:51:46;100212.56;;;13.46;75.41
30875;BME280;17581;43.222;27.924;2023-03-26T17:56:50;100204.94;;;13.41;75.20
30875;BME280;17581;43.222;27.924;2023-03-26T17:59:21;100214.28;;;13.47;75.29
30875;BME280;17581;43.222;27.924;2023-03-26T18:01:54;100215.28;;;13.46;75.17
30875;BME280;17581;43.222;27.924;2023-03-26T18:04:30;100218.44;;;13.41;75.12
30875;BME280;17581;43.222;27.924;2023-03-26T18:17:48;100211.94;;;13.17;75.21
30875;BME280;17581;43.222;27.924;2023-03-26T18:20:21;100217.31;;;13.17;75.45
30875;BME280;17581;43.222;27.924;2023-03-26T18:22:48;100216.03;;;13.21;75.00
30875;BME280;17581;43.222;27.924;2023-03-26T18:25:30;100225.88;;;13.12;74.95
30875;BME280;17581;43.222;27.924;2023-03-26T18:27:58;100221.88;;;13.06;75.47
30875;BME280;17581;43.222;27.924;2023-03-26T18:30:26;100226.91;;;13.01;75.10
30875;BME280;17581;43.222;27.924;2023-03-26T18:32:59;100213.22;;;13.13;75.00
30875;BME280;17581;43.222;27.924;2023-03-26T18:35:26;100233.22;;;13.20;75.07
30875;BME280;17581;43.222;27.924;2023-03-26T18:37:55;100231.81;;;13.16;74.86
30875;BME280;17581;43.222;27.924;2023-03-26T18:40:46;100222.47;;;13.10;74.49
30875;BME280;17581;43.222;27.924;2023-03-26T18:43:17;100224.75;;;13.15;74.35
30875;BME280;17581;43.222;27.924;2023-03-26T18:45:44;100210.53;;;13.13;73.88
30875;BME280;17581;43.222;27.924;2023-03-26T18:48:19;100218.88;;;13.19;74.19
30875;BME280;17581;43.222;27.924;2023-03-26T18:50:50;100211.31;;;13.23;73.48
30875;BME280;17581;43.222;27.924;2023-03-26T18:53:20;100214.69;;;13.25;73.16
30875;BME280;17581;43.222;27.924;2023-03-26T18:55:47;100203.22;;;13.23;73.06
30875;BME280;17581;43.222;27.924;2023-03-26T18:58:38;100212.56;;;13.28;72.80
30875;BME280;17581;43.222;27.924;2023-03-26T19:01:07;100218.44;;;13.24;72.64
30875;BME280;17581;43.222;27.924;2023-03-26T19:03:36;100208.63;;;13.23;72.57
30875;BME280;17581;43.222;27.924;2023-03-26T19:06:06;100202.53;;;13.21;72.51
30875;BME280;17581;43.222;27.924;2023-03-26T19:08:35;100202.84;;;13.18;72.18
30875;BME280;17581;43.222;27.924;2023-03-26T19:11:04;100194.00;;;13.16;72.03
30875;BME280;17581;43.222;27.924;2023-03-26T19:13:33;100187.47;;;13.18;72.02
30875;BME280;17581;43.222;27.924;2023-03-26T19:16:01;100206.22;;;13.20;72.08
30875;BME280;17581;43.222;27.924;2023-03-26T19:18:29;100187.25;;;13.12;72.05
30875;BME280;17581;43.222;27.924;2023-03-26T19:21:01;100186.78;;;13.06;72.07
30875;BME280;17581;43.222;27.924;2023-03-26T19:23:31;100196.88;;;13.14;71.68